sensor_id;sensor_type;location;lat;lon;timestamp;P1;durP1;ratioP1;P2;durP2;ratioP2
2598;SDS011;1309;48.810;8.954;2023-03-01T00:01:01;16.20;;;8.90;;
2598;SDS011;1309;48.810;8.954;2023-03-01T00:03:29;19.97;;;10.00;;
2598;SDS011;1309;48.810;8.954;2023-03-01T00:06:00;17.17;;;9.20;;
2598;SDS011;1309;48.810;8.954;2023-03-01T00:08:31;15.53;;;9.37;;
2598;SDS011;1309;48.810;8.954;2023-03-01T00:11:10;16.43;;;9.90;;
2598;SDS011;1309;48.810;8.954;2023-03-01T00:13:46;19.30;;;8.83;;
2598;SDS011;1309;48.810;8.954;2023-03-01T00:16:16;19.17;;;9.70;;
2598;SDS011;1309;48.810;8.954;2023-03-01T00:18:45;18.03;;;9.60;;
2598;SDS011;1309;48.810;8.954;2023-03-01T00:21:17;15.47;;;8.53;;
2598;SDS011;1309;48.810;8.954;2023-03-01T00:23:50;19.70;;;10.10;;
2598;SDS011;1309;48.810;8.954;2023-03-01T00:26:21;18.77;;;9.40;;
2598;SDS011;1309;48.810;8.954;2023-03-01T00:28:53;16.83;;;8.40;;
2598;SDS011;1309;48.810;8.954;2023-03-01T00:31:23;19.37;;;9.17;;
2598;SDS011;1309;48.810;8.954;2023-03-01T00:33:55;16.13;;;8.30;;
2598;SDS011;1309;48.810;8.954;2023-03-01T00:36:25;18.50;;;10.00;;
2598;SDS011;1309;48.810;8.954;2023-03-01T00:38:56;13.10;;;7.90;;
2598;SDS011;1309;48.810;8.954;2023-03-01T00:41:42;16.57;;;9.80;;
2598;SDS011;1309;48.810;8.954;2023-03-01T00:44:13;21.27;;;10.93;;
2598;SDS011;1309;48.810;8.954;2023-03-01T00:46:45;14.77;;;8.83;;
2598;SDS011;1309;48.810;8.954;2023-03-01T00:49:16;20.03;;;11.20;;
2598;SDS011;1309;48.810;8.954;2023-03-01T00:51:50;19.17;;;9.10;;
2598;SDS011;1309;48.810;8.954;2023-03-01T00:54:28;19.73;;;9.70;;
2598;SDS011;1309;48.810;8.954;2023-03-01T00:56:58;18.67;;;9.53;;
2598;SDS011;1309;48.810;8.954;2023-03-01T00:59:27;14.37;;;8.63;;
2598;SDS011;1309;48.810;8.954;2023-03-01T01:01:55;14.73;;;8.83;;
2598;SDS011;1309;48.810;8.954;2023-03-01T01:04:25;13.10;;;8.87;;
2598;SDS011;1309;48.810;8.954;2023-03-01T01:06:53;22.90;;;10.30;;
2598;SDS011;1309;48.810;8.954;2023-03-01T01:09:21;13.60;;;9.30;;
2598;SDS011;1309;48.810;8.954;2023-03-01T01:11:51;18.50;;;9.20;;
2598;SDS011;1309;48.810;8.954;2023-03-01T01:14:19;19.67;;;11.30;;
2598;SDS011;1309;48.810;8.954;2023-03-01T01:16:48;14.90;;;8.27;;
2598;SDS011;1309;48.810;8.954;2023-03-01T01:19:16;19.23;;;10.27;;
2598;SDS011;1309;48.810;8.954;2023-03-01T01:21:44;13.60;;;8.43;;
2598;SDS011;1309;48.810;8.954;2023-03-01T01:24:12;14.77;;;9.37;;
2598;SDS011;1309;48.810;8.954;2023-03-01T01:26:42;15.93;;;8.40;;
2598;SDS011;1309;48.810;8.954;2023-03-01T01:29:20;14.33;;;8.77;;
2598;SDS011;1309;48.810;8.954;2023-03-01T01:31:50;22.53;;;9.63;;
2598;SDS011;1309;48.810;8.954;2023-03-01T01:34:21;17.60;;;9.30;;
2598;SDS011;1309;48.810;8.954;2023-03-01T01:36:49;15.80;;;9.57;;
2598;SDS011;1309;48.810;8.954;2023-03-01T01:39:23;20.60;;;9.00;;
2598;SDS011;1309;48.810;8.954;2023-03-01T01:41:58;17.00;;;9.30;;
2598;SDS011;1309;48.810;8.954;2023-03-01T01:44:27;17.70;;;8.53;;
2598;SDS011;1309;48.810;8.954;2023-03-01T01:46:58;18.10;;;9.40;;
2598;SDS011;1309;48.810;8.954;2023-03-01T01:49:29;15.50;;;9.50;;
2598;SDS011;1309;48.810;8.954;2023-03-01T01:52:12;15.27;;;9.23;;
2598;SDS011;1309;48.810;8.954;2023-03-01T01:54:45;16.87;;;8.23;;
2598;SDS011;1309;48.810;8.954;2023-03-01T01:57:19;17.67;;;9.10;;
2598;SDS011;1309;48.810;8.954;2023-03-01T01:59:49;13.57;;;8.50;;
2598;SDS011;1309;48.810;8.954;2023-03-01T02:02:25;22.40;;;11.70;;
2598;SDS011;1309;48.810;8.954;2023-03-01T02:04:58;14.97;;;9.17;;
2598;SDS011;1309;48.810;8.954;2023-03-01T02:07:38;13.97;;;8.57;;
2598;SDS011;1309;48.810;8.954;2023-03-01T02:10:07;18.00;;;8.90;;
2598;SDS011;1309;48.810;8.954;2023-03-01T02:12:36;14.77;;;8.40;;
2598;SDS011;1309;48.810;8.954;2023-03-01T02:15:10;16.03;;;8.93;;
2598;SDS011;1309;48.810;8.954;2023-03-01T02:17:39;14.43;;;7.30;;
2598;SDS011;1309;48.810;8.954;2023-03-01T02:20:11;19.13;;;9.93;;
2598;SDS011;1309;48.810;8.954;2023-03-01T02:22:46;21.47;;;8.57;;
2598;SDS011;1309;48.810;8.954;2023-03-01T02:25:24;17.33;;;10.47;;
2598;SDS011;1309;48.810;8.954;2023-03-01T02:27:56;14.50;;;7.87;;
2598;SDS011;1309;48.810;8.954;2023-03-01T02:30:28;19.30;;;8.47;;
2598;SDS011;1309;48.810;8.954;2023-03-01T02:32:57;14.80;;;9.67;;
2598;SDS011;1309;48.810;8.954;2023-03-01T02:35:29;19.10;;;10.53;;
2598;SDS011;1309;48.810;8.954;2023-03-01T02:38:02;16.63;;;9.23;;
2598;SDS011;1309;48.810;8.954;2023-03-01T02:40:38;21.17;;;10.27;;
2598;SDS011;1309;48.810;8.954;2023-03-01T02:43:07;15.43;;;9.63;;
2598;SDS011;1309;48.810;8.954;2023-03-01T02:45:38;16.20;;;8.87;;
2598;SDS011;1309;48.810;8.954;2023-03-01T02:48:10;17.10;;;9.90;;
2598;SDS011;1309;48.810;8.954;2023-03-01T02:50:45;12.70;;;7.90;;
2598;SDS011;1309;48.810;8.954;2023-03-01T02:53:27;15.93;;;8.70;;
2598;SDS011;1309;48.810;8.954;2023-03-01T02:56:05;17.93;;;10.70;;
2598;SDS011;1309;48.810;8.954;2023-03-01T02:58:40;22.30;;;9.73;;
2598;SDS011;1309;48.810;8.954;2023-03-01T03:01:18;14.20;;;8.63;;
2598;SDS011;1309;48.810;8.954;2023-03-01T03:03:46;16.57;;;9.90;;
2598;SDS011;1309;48.810;8.954;2023-03-01T03:06:15;21.50;;;9.80;;
2598;SDS011;1309;48.810;8.954;2023-03-01T03:08:45;16.13;;;9.20;;
2598;SDS011;1309;48.810;8.954;2023-03-01T03:11:16;20.30;;;10.73;;
2598;SDS011;1309;48.810;8.954;2023-03-01T03:14:03;18.00;;;9.40;;
2598;SDS011;1309;48.810;8.954;2023-03-01T03:16:43;17.37;;;9.87;;
2598;SDS011;1309;48.810;8.954;2023-03-01T03:19:12;18.57;;;8.93;;
2598;SDS011;1309;48.810;8.954;2023-03-01T03:21:42;18.10;;;9.57;;
2598;SDS011;1309;48.810;8.954;2023-03-01T03:24:10;16.67;;;9.93;;
2598;SDS011;1309;48.810;8.954;2023-03-01T03:26:40;18.40;;;10.60;;
2598;SDS011;1309;48.810;8.954;2023-03-01T03:29:09;21.37;;;10.77;;
2598;SDS011;1309;48.810;8.954;2023-03-01T03:31:39;19.30;;;9.50;;
2598;SDS011;1309;48.810;8.954;2023-03-01T03:34:09;21.50;;;9.93;;
2598;SDS011;1309;48.810;8.954;2023-03-01T03:36:43;16.97;;;8.93;;
2598;SDS011;1309;48.810;8.954;2023-03-01T03:39:17;14.47;;;8.30;;
2598;SDS011;1309;48.810;8.954;2023-03-01T03:41:48;22.07;;;12.60;;
2598;SDS011;1309;48.810;8.954;2023-03-01T03:44:16;19.90;;;10.30;;
2598;SDS011;1309;48.810;8.954;2023-03-01T03:46:50;16.40;;;9.33;;
2598;SDS011;1309;48.810;8.954;2023-03-01T03:49:30;18.53;;;8.60;;
2598;SDS011;1309;48.810;8.954;2023-03-01T03:52:01;21.40;;;10.70;;
2598;SDS011;1309;48.810;8.954;2023-03-01T03:54:31;19.60;;;9.47;;
2598;SDS011;1309;48.810;8.954;2023-03-01T03:56:59;15.40;;;9.57;;
2598;SDS011;1309;48.810;8.954;2023-03-01T03:59:30;23.17;;;11.53;;
2598;SDS011;1309;48.810;8.954;2023-03-01T04:02:07;18.23;;;9.70;;
2598;SDS011;1309;48.810;8.954;2023-03-01T04:04:37;19.87;;;10.13;;
2598;SDS011;1309;48.810;8.954;2023-03-01T04:07:09;17.73;;;11.10;;
2598;SDS011;1309;48.810;8.954;2023-03-01T04:09:37;20.17;;;10.47;;
2598;SDS011;1309;48.810;8.954;2023-03-01T04:12:05;21.83;;;12.00;;
2598;SDS011;1309;48.810;8.954;2023-03-01T04:14:38;18.13;;;10.20;;
2598;SDS011;1309;48.810;8.954;2023-03-01T04:17:06;21.23;;;11.93;;
2598;SDS011;1309;48.810;8.954;2023-03-01T04:19:38;18.57;;;9.90;;
2598;SDS011;1309;48.810;8.954;2023-03-01T04:22:06;20.23;;;11.40;;
2598;SDS011;1309;48.810;8.954;2023-03-01T04:24:35;16.87;;;10.10;;
2598;SDS011;1309;48.810;8.954;2023-03-01T04:27:03;19.43;;;10.37;;
2598;SDS011;1309;48.810;8.954;2023-03-01T04:29:36;19.17;;;10.83;;
2598;SDS011;1309;48.810;8.954;2023-03-01T04:32:04;18.47;;;9.27;;
2598;SDS011;1309;48.810;8.954;2023-03-01T04:34:42;16.53;;;9.03;;
2598;SDS011;1309;48.810;8.954;2023-03-01T04:37:10;21.10;;;10.47;;
2598;SDS011;1309;48.810;8.954;2023-03-01T04:39:38;21.80;;;11.57;;
2598;SDS011;1309;48.810;8.954;2023-03-01T04:42:11;21.70;;;11.67;;
2598;SDS011;1309;48.810;8.954;2023-03-01T04:44:40;25.33;;;12.70;;
2598;SDS011;1309;48.810;8.954;2023-03-01T04:47:08;25.13;;;11.27;;
2598;SDS011;1309;48.810;8.954;2023-03-01T04:49:36;14.50;;;8.90;;
2598;SDS011;1309;48.810;8.954;2023-03-01T04:52:09;21.50;;;11.10;;
2598;SDS011;1309;48.810;8.954;2023-03-01T04:54:37;16.70;;;9.80;;
2598;SDS011;1309;48.810;8.954;2023-03-01T04:57:07;19.53;;;11.20;;
2598;SDS011;1309;48.810;8.954;2023-03-01T04:59:41;18.33;;;10.70;;
2598;SDS011;1309;48.810;8.954;2023-03-01T05:02:11;19.87;;;10.70;;
2598;SDS011;1309;48.810;8.954;2023-03-01T05:04:42;16.00;;;9.60;;
2598;SDS011;1309;48.810;8.954;2023-03-01T05:07:14;20.73;;;10.60;;
2598;SDS011;1309;48.810;8.954;2023-03-01T05:09:45;15.50;;;10.40;;
2598;SDS011;1309;48.810;8.954;2023-03-01T05:12:14;21.23;;;10.00;;
2598;SDS011;1309;48.810;8.954;2023-03-01T05:14:44;19.23;;;11.40;;
2598;SDS011;1309;48.810;8.954;2023-03-01T05:17:14;23.47;;;12.07;;
2598;SDS011;1309;48.810;8.954;2023-03-01T05:19:45;19.20;;;9.97;;
2598;SDS011;1309;48.810;8.954;2023-03-01T05:22:15;20.33;;;11.67;;
2598;SDS011;1309;48.810;8.954;2023-03-01T05:24:46;23.37;;;11.03;;
2598;SDS011;1309;48.810;8.954;2023-03-01T05:27:14;18.07;;;10.00;;
2598;SDS011;1309;48.810;8.954;2023-03-01T05:29:43;19.03;;;9.87;;
2598;SDS011;1309;48.810;8.954;2023-03-01T05:32:11;19.20;;;10.07;;
2598;SDS011;1309;48.810;8.954;2023-03-01T05:34:42;18.97;;;9.60;;
2598;SDS011;1309;48.810;8.954;2023-03-01T05:37:10;19.30;;;11.70;;
2598;SDS011;1309;48.810;8.954;2023-03-01T05:39:43;21.83;;;11.57;;
2598;SDS011;1309;48.810;8.954;2023-03-01T05:42:16;18.50;;;10.33;;
2598;SDS011;1309;48.810;8.954;2023-03-01T05:44:44;18.67;;;10.47;;
2598;SDS011;1309;48.810;8.954;2023-03-01T05:47:18;19.77;;;10.60;;
2598;SDS011;1309;48.810;8.954;2023-03-01T05:49:47;19.97;;;10.30;;
2598;SDS011;1309;48.810;8.954;2023-03-01T05:52:19;21.80;;;12.70;;
2598;SDS011;1309;48.810;8.954;2023-03-01T05:54:50;21.10;;;10.50;;
2598;SDS011;1309;48.810;8.954;2023-03-01T05:57:21;14.63;;;8.80;;
2598;SDS011;1309;48.810;8.954;2023-03-01T05:59:49;25.20;;;10.40;;
2598;SDS011;1309;48.810;8.954;2023-03-01T06:02:17;23.93;;;10.70;;
2598;SDS011;1309;48.810;8.954;2023-03-01T06:04:45;23.10;;;10.30;;
2598;SDS011;1309;48.810;8.954;2023-03-01T06:07:16;20.87;;;10.50;;
2598;SDS011;1309;48.810;8.954;2023-03-01T06:09:47;25.03;;;12.13;;
2598;SDS011;1309;48.810;8.954;2023-03-01T06:12:16;18.70;;;10.57;;
2598;SDS011;1309;48.810;8.954;2023-03-01T06:14:47;23.30;;;11.77;;
2598;SDS011;1309;48.810;8.954;2023-03-01T06:17:15;21.70;;;12.27;;
2598;SDS011;1309;48.810;8.954;2023-03-01T06:19:47;27.60;;;13.17;;
2598;SDS011;1309;48.810;8.954;2023-03-01T06:22:15;18.47;;;11.00;;
2598;SDS011;1309;48.810;8.954;2023-03-01T06:24:43;19.07;;;11.00;;
2598;SDS011;1309;48.810;8.954;2023-03-01T06:27:14;20.00;;;12.33;;
2598;SDS011;1309;48.810;8.954;2023-03-01T06:29:46;18.20;;;10.83;;
2598;SDS011;1309;48.810;8.954;2023-03-01T06:32:18;15.97;;;10.47;;
2598;SDS011;1309;48.810;8.954;2023-03-01T06:34:46;20.40;;;10.77;;
2598;SDS011;1309;48.810;8.954;2023-03-01T06:37:14;17.87;;;10.80;;
2598;SDS011;1309;48.810;8.954;2023-03-01T06:39:43;20.77;;;12.70;;
2598;SDS011;1309;48.810;8.954;2023-03-01T06:42:14;18.83;;;11.07;;
2598;SDS011;1309;48.810;8.954;2023-03-01T06:44:43;25.53;;;12.00;;
2598;SDS011;1309;48.810;8.954;2023-03-01T06:47:12;23.37;;;12.07;;
2598;SDS011;1309;48.810;8.954;2023-03-01T06:49:40;27.03;;;9.80;;
2598;SDS011;1309;48.810;8.954;2023-03-01T06:52:14;19.17;;;11.07;;
2598;SDS011;1309;48.810;8.954;2023-03-01T06:54:44;23.27;;;12.60;;
2598;SDS011;1309;48.810;8.954;2023-03-01T06:57:19;25.97;;;12.50;;
2598;SDS011;1309;48.810;8.954;2023-03-01T06:59:50;17.07;;;9.10;;
2598;SDS011;1309;48.810;8.954;2023-03-01T07:02:19;24.43;;;11.10;;
2598;SDS011;1309;48.810;8.954;2023-03-01T07:04:48;22.13;;;10.60;;
2598;SDS011;1309;48.810;8.954;2023-03-01T07:07:16;19.63;;;10.20;;
2598;SDS011;1309;48.810;8.954;2023-03-01T07:09:45;22.70;;;13.57;;
2598;SDS011;1309;48.810;8.954;2023-03-01T07:12:14;22.90;;;10.90;;
2598;SDS011;1309;48.810;8.954;2023-03-01T07:14:44;24.93;;;11.40;;
2598;SDS011;1309;48.810;8.954;2023-03-01T07:17:16;18.07;;;10.60;;
2598;SDS011;1309;48.810;8.954;2023-03-01T07:19:47;21.77;;;13.87;;
2598;SDS011;1309;48.810;8.954;2023-03-01T07:22:15;21.43;;;11.77;;
2598;SDS011;1309;48.810;8.954;2023-03-01T07:24:45;19.63;;;10.47;;
2598;SDS011;1309;48.810;8.954;2023-03-01T07:27:13;18.70;;;12.13;;
2598;SDS011;1309;48.810;8.954;2023-03-01T07:29:42;15.47;;;9.43;;
2598;SDS011;1309;48.810;8.954;2023-03-01T07:32:16;18.77;;;11.50;;
2598;SDS011;1309;48.810;8.954;2023-03-01T07:34:50;20.40;;;11.10;;
2598;SDS011;1309;48.810;8.954;2023-03-01T07:37:21;23.07;;;10.60;;
2598;SDS011;1309;48.810;8.954;2023-03-01T07:39:50;18.23;;;11.60;;
2598;SDS011;1309;48.810;8.954;2023-03-01T07:42:28;20.07;;;12.37;;
2598;SDS011;1309;48.810;8.954;2023-03-01T07:44:58;20.20;;;9.80;;
2598;SDS011;1309;48.810;8.954;2023-03-01T07:47:27;26.30;;;12.10;;
2598;SDS011;1309;48.810;8.954;2023-03-01T07:49:57;21.37;;;12.50;;
2598;SDS011;1309;48.810;8.954;2023-03-01T07:52:27;18.00;;;11.37;;
2598;SDS011;1309;48.810;8.954;2023-03-01T07:54:58;19.47;;;10.70;;
2598;SDS011;1309;48.810;8.954;2023-03-01T07:57:29;21.20;;;10.43;;
2598;SDS011;1309;48.810;8.954;2023-03-01T07:59:59;23.77;;;10.40;;
2598;SDS011;1309;48.810;8.954;2023-03-01T08:02:33;28.47;;;13.50;;
2598;SDS011;1309;48.810;8.954;2023-03-01T08:05:01;20.23;;;12.23;;
2598;SDS011;1309;48.810;8.954;2023-03-01T08:07:32;19.73;;;9.73;;
2598;SDS011;1309;48.810;8.954;2023-03-01T08:10:00;25.70;;;12.90;;
2598;SDS011;1309;48.810;8.954;2023-03-01T08:12:29;21.27;;;12.27;;
2598;SDS011;1309;48.810;8.954;2023-03-01T08:15:00;18.80;;;10.80;;
2598;SDS011;1309;48.810;8.954;2023-03-01T08:17:28;23.60;;;11.37;;
2598;SDS011;1309;48.810;8.954;2023-03-01T08:19:59;21.70;;;11.20;;
2598;SDS011;1309;48.810;8.954;2023-03-01T08:22:27;18.40;;;10.57;;
2598;SDS011;1309;48.810;8.954;2023-03-01T08:25:00;23.63;;;11.63;;
2598;SDS011;1309;48.810;8.954;2023-03-01T08:27:28;21.83;;;10.87;;
2598;SDS011;1309;48.810;8.954;2023-03-01T08:30:01;25.17;;;11.77;;
2598;SDS011;1309;48.810;8.954;2023-03-01T08:32:35;22.93;;;14.13;;
2598;SDS011;1309;48.810;8.954;2023-03-01T08:35:04;25.13;;;12.80;;
2598;SDS011;1309;48.810;8.954;2023-03-01T08:37:33;20.73;;;11.17;;
2598;SDS011;1309;48.810;8.954;2023-03-01T08:40:03;38.83;;;11.90;;
2598;SDS011;1309;48.810;8.954;2023-03-01T08:42:33;22.47;;;10.70;;
2598;SDS011;1309;48.810;8.954;2023-03-01T08:45:03;24.87;;;11.20;;
2598;SDS011;1309;48.810;8.954;2023-03-01T08:47:32;25.60;;;12.37;;
2598;SDS011;1309;48.810;8.954;2023-03-01T08:50:05;24.93;;;12.10;;
2598;SDS011;1309;48.810;8.954;2023-03-01T08:52:35;28.60;;;14.50;;
2598;SDS011;1309;48.810;8.954;2023-03-01T08:55:04;24.60;;;11.97;;
2598;SDS011;1309;48.810;8.954;2023-03-01T08:57:32;26.47;;;12.30;;
2598;SDS011;1309;48.810;8.954;2023-03-01T09:00:00;23.53;;;11.63;;
2598;SDS011;1309;48.810;8.954;2023-03-01T09:02:34;25.93;;;12.50;;
2598;SDS011;1309;48.810;8.954;2023-03-01T09:05:05;21.53;;;12.73;;
2598;SDS011;1309;48.810;8.954;2023-03-01T09:07:34;18.33;;;10.63;;
2598;SDS011;1309;48.810;8.954;2023-03-01T09:10:02;23.23;;;12.60;;
2598;SDS011;1309;48.810;8.954;2023-03-01T09:12:31;26.83;;;12.33;;
2598;SDS011;1309;48.810;8.954;2023-03-01T09:14:59;26.07;;;12.83;;
2598;SDS011;1309;48.810;8.954;2023-03-01T09:17:29;27.00;;;14.27;;
2598;SDS011;1309;48.810;8.954;2023-03-01T09:19:58;27.27;;;14.27;;
2598;SDS011;1309;48.810;8.954;2023-03-01T09:22:28;22.07;;;11.70;;
2598;SDS011;1309;48.810;8.954;2023-03-01T09:24:57;26.33;;;10.63;;
2598;SDS011;1309;48.810;8.954;2023-03-01T09:27:25;19.53;;;11.60;;
2598;SDS011;1309;48.810;8.954;2023-03-01T09:29:55;26.47;;;13.47;;
2598;SDS011;1309;48.810;8.954;2023-03-01T09:32:25;24.57;;;12.73;;
2598;SDS011;1309;48.810;8.954;2023-03-01T09:34:55;25.50;;;11.77;;
2598;SDS011;1309;48.810;8.954;2023-03-01T09:37:31;20.10;;;12.70;;
2598;SDS011;1309;48.810;8.954;2023-03-01T09:40:00;31.37;;;13.70;;
2598;SDS011;1309;48.810;8.954;2023-03-01T09:42:31;33.20;;;12.67;;
2598;SDS011;1309;48.810;8.954;2023-03-01T09:45:00;24.37;;;12.80;;
2598;SDS011;1309;48.810;8.954;2023-03-01T09:47:33;24.47;;;13.87;;
2598;SDS011;1309;48.810;8.954;2023-03-01T09:50:04;24.30;;;11.40;;
2598;SDS011;1309;48.810;8.954;2023-03-01T09:52:37;21.37;;;12.33;;
2598;SDS011;1309;48.810;8.954;2023-03-01T09:55:11;25.73;;;15.97;;
2598;SDS011;1309;48.810;8.954;2023-03-01T09:57:43;21.87;;;11.57;;
2598;SDS011;1309;48.810;8.954;2023-03-01T10:00:16;22.57;;;13.00;;
2598;SDS011;1309;48.810;8.954;2023-03-01T10:02:52;28.07;;;12.97;;
2598;SDS011;1309;48.810;8.954;2023-03-01T10:08:25;25.00;;;13.10;;
2598;SDS011;1309;48.810;8.954;2023-03-01T10:10:57;25.77;;;12.30;;
2598;SDS011;1309;48.810;8.954;2023-03-01T10:13:37;22.07;;;12.60;;
2598;SDS011;1309;48.810;8.954;2023-03-01T10:16:13;23.90;;;13.20;;
2598;SDS011;1309;48.810;8.954;2023-03-01T10:18:47;27.70;;;13.50;;
2598;SDS011;1309;48.810;8.954;2023-03-01T10:21:25;24.70;;;11.90;;
2598;SDS011;1309;48.810;8.954;2023-03-01T10:23:56;22.57;;;13.20;;
2598;SDS011;1309;48.810;8.954;2023-03-01T10:26:36;19.60;;;12.17;;
2598;SDS011;1309;48.810;8.954;2023-03-01T10:29:14;26.20;;;13.27;;
2598;SDS011;1309;48.810;8.954;2023-03-01T10:31:43;27.47;;;12.93;;
2598;SDS011;1309;48.810;8.954;2023-03-01T10:34:14;24.70;;;12.37;;
2598;SDS011;1309;48.810;8.954;2023-03-01T10:36:49;22.70;;;13.70;;
2598;SDS011;1309;48.810;8.954;2023-03-01T10:39:23;23.90;;;14.27;;
2598;SDS011;1309;48.810;8.954;2023-03-01T10:41:57;23.00;;;13.50;;
2598;SDS011;1309;48.810;8.954;2023-03-01T10:47:19;25.63;;;12.67;;
2598;SDS011;1309;48.810;8.954;2023-03-01T10:49:53;21.77;;;13.40;;
2598;SDS011;1309;48.810;8.954;2023-03-01T10:52:25;19.87;;;12.33;;
2598;SDS011;1309;48.810;8.954;2023-03-01T10:55:19;26.60;;;12.60;;
2598;SDS011;1309;48.810;8.954;2023-03-01T10:58:05;25.47;;;13.80;;
2598;SDS011;1309;48.810;8.954;2023-03-01T11:00:45;25.53;;;14.20;;
2598;SDS011;1309;48.810;8.954;2023-03-01T11:03:16;26.03;;;13.10;;
2598;SDS011;1309;48.810;8.954;2023-03-01T11:05:58;24.97;;;13.50;;
2598;SDS011;1309;48.810;8.954;2023-03-01T11:08:33;19.27;;;12.27;;
2598;SDS011;1309;48.810;8.954;2023-03-01T11:11:16;24.30;;;13.77;;
2598;SDS011;1309;48.810;8.954;2023-03-01T11:13:54;30.37;;;14.13;;
2598;SDS011;1309;48.810;8.954;2023-03-01T11:16:26;27.27;;;14.23;;
2598;SDS011;1309;48.810;8.954;2023-03-01T11:19:14;25.00;;;11.63;;
2598;SDS011;1309;48.810;8.954;2023-03-01T11:21:51;26.13;;;12.63;;
2598;SDS011;1309;48.810;8.954;2023-03-01T11:24:25;21.33;;;13.40;;
2598;SDS011;1309;48.810;8.954;2023-03-01T11:26:58;24.07;;;13.00;;
2598;SDS011;1309;48.810;8.954;2023-03-01T11:29:35;28.60;;;13.00;;
2598;SDS011;1309;48.810;8.954;2023-03-01T11:32:16;26.87;;;14.27;;
2598;SDS011;1309;48.810;8.954;2023-03-01T11:34:50;21.90;;;11.83;;
2598;SDS011;1309;48.810;8.954;2023-03-01T11:37:21;27.80;;;13.30;;
2598;SDS011;1309;48.810;8.954;2023-03-01T11:40:01;22.30;;;12.30;;
2598;SDS011;1309;48.810;8.954;2023-03-01T11:42:42;22.70;;;12.60;;
2598;SDS011;1309;48.810;8.954;2023-03-01T11:45:18;26.90;;;13.20;;
2598;SDS011;1309;48.810;8.954;2023-03-01T11:47:51;26.10;;;13.40;;
2598;SDS011;1309;48.810;8.954;2023-03-01T11:50:35;26.63;;;12.77;;
2598;SDS011;1309;48.810;8.954;2023-03-01T11:53:19;23.13;;;12.77;;
2598;SDS011;1309;48.810;8.954;2023-03-01T11:55:58;27.00;;;13.87;;
2598;SDS011;1309;48.810;8.954;2023-03-01T12:01:32;21.17;;;11.30;;
2598;SDS011;1309;48.810;8.954;2023-03-01T12:07:24;26.60;;;12.10;;
2598;SDS011;1309;48.810;8.954;2023-03-01T12:09:57;23.77;;;13.53;;
2598;SDS011;1309;48.810;8.954;2023-03-01T12:12:40;25.47;;;13.97;;
2598;SDS011;1309;48.810;8.954;2023-03-01T12:18:10;18.97;;;11.87;;
2598;SDS011;1309;48.810;8.954;2023-03-01T12:20:58;21.50;;;13.13;;
2598;SDS011;1309;48.810;8.954;2023-03-01T12:23:37;22.80;;;12.10;;
2598;SDS011;1309;48.810;8.954;2023-03-01T12:26:28;23.77;;;13.03;;
2598;SDS011;1309;48.810;8.954;2023-03-01T12:31:52;24.80;;;12.37;;
2598;SDS011;1309;48.810;8.954;2023-03-01T12:34:48;25.13;;;12.63;;
2598;SDS011;1309;48.810;8.954;2023-03-01T12:37:39;20.50;;;11.40;;
2598;SDS011;1309;48.810;8.954;2023-03-01T12:43:23;25.70;;;12.57;;
2598;SDS011;1309;48.810;8.954;2023-03-01T12:46:08;21.20;;;12.13;;
2598;SDS011;1309;48.810;8.954;2023-03-01T12:48:43;26.43;;;12.53;;
2598;SDS011;1309;48.810;8.954;2023-03-01T12:51:16;23.73;;;12.17;;
2598;SDS011;1309;48.810;8.954;2023-03-01T12:53:46;25.30;;;13.23;;
2598;SDS011;1309;48.810;8.954;2023-03-01T12:56:16;25.93;;;12.87;;
2598;SDS011;1309;48.810;8.954;2023-03-01T12:58:49;26.30;;;12.43;;
2598;SDS011;1309;48.810;8.954;2023-03-01T13:01:29;19.67;;;12.27;;
2598;SDS011;1309;48.810;8.954;2023-03-01T13:07:13;23.60;;;12.57;;
2598;SDS011;1309;48.810;8.954;2023-03-01T13:09:46;23.07;;;12.37;;
2598;SDS011;1309;48.810;8.954;2023-03-01T13:15:26;26.53;;;12.30;;
2598;SDS011;1309;48.810;8.954;2023-03-01T13:17:58;21.93;;;11.47;;
2598;SDS011;1309;48.810;8.954;2023-03-01T13:20:29;28.53;;;14.37;;
2598;SDS011;1309;48.810;8.954;2023-03-01T13:23:07;25.00;;;13.00;;
2598;SDS011;1309;48.810;8.954;2023-03-01T13:28:47;22.03;;;13.33;;
2598;SDS011;1309;48.810;8.954;2023-03-01T13:37:26;27.00;;;13.50;;
2598;SDS011;1309;48.810;8.954;2023-03-01T13:39:58;22.30;;;12.70;;
2598;SDS011;1309;48.810;8.954;2023-03-01T13:42:36;26.70;;;12.50;;
2598;SDS011;1309;48.810;8.954;2023-03-01T13:48:01;23.00;;;14.23;;
2598;SDS011;1309;48.810;8.954;2023-03-01T13:50:43;28.90;;;13.27;;
2598;SDS011;1309;48.810;8.954;2023-03-01T13:53:17;21.93;;;11.30;;
2598;SDS011;1309;48.810;8.954;2023-03-01T13:55:51;24.53;;;12.70;;
2598;SDS011;1309;48.810;8.954;2023-03-01T13:58:22;27.20;;;13.37;;
2598;SDS011;1309;48.810;8.954;2023-03-01T14:01:06;26.70;;;12.83;;
2598;SDS011;1309;48.810;8.954;2023-03-01T14:03:47;23.23;;;13.47;;
2598;SDS011;1309;48.810;8.954;2023-03-01T14:06:17;25.63;;;13.40;;
2598;SDS011;1309;48.810;8.954;2023-03-01T14:08:50;25.50;;;14.40;;
2598;SDS011;1309;48.810;8.954;2023-03-01T14:11:34;25.07;;;14.10;;
2598;SDS011;1309;48.810;8.954;2023-03-01T14:14:34;27.33;;;13.50;;
2598;SDS011;1309;48.810;8.954;2023-03-01T14:17:20;24.13;;;12.43;;
2598;SDS011;1309;48.810;8.954;2023-03-01T14:19:57;20.27;;;12.40;;
2598;SDS011;1309;48.810;8.954;2023-03-01T14:22:27;27.00;;;13.30;;
2598;SDS011;1309;48.810;8.954;2023-03-01T14:24:58;25.03;;;12.90;;
2598;SDS011;1309;48.810;8.954;2023-03-01T14:27:35;29.50;;;15.80;;
2598;SDS011;1309;48.810;8.954;2023-03-01T14:30:10;22.67;;;14.00;;
2598;SDS011;1309;48.810;8.954;2023-03-01T14:32:52;24.50;;;13.43;;
2598;SDS011;1309;48.810;8.954;2023-03-01T14:35:22;26.13;;;12.90;;
2598;SDS011;1309;48.810;8.954;2023-03-01T14:37:52;25.07;;;14.80;;
2598;SDS011;1309;48.810;8.954;2023-03-01T14:40:26;28.23;;;13.60;;
2598;SDS011;1309;48.810;8.954;2023-03-01T14:43:00;24.93;;;14.17;;
2598;SDS011;1309;48.810;8.954;2023-03-01T14:45:30;22.83;;;12.43;;
2598;SDS011;1309;48.810;8.954;2023-03-01T14:48:00;28.40;;;14.87;;
2598;SDS011;1309;48.810;8.954;2023-03-01T14:50:30;24.80;;;12.80;;
2598;SDS011;1309;48.810;8.954;2023-03-01T14:53:01;26.97;;;15.43;;
2598;SDS011;1309;48.810;8.954;2023-03-01T14:55:35;23.93;;;13.20;;
2598;SDS011;1309;48.810;8.954;2023-03-01T14:58:05;25.73;;;13.07;;
2598;SDS011;1309;48.810;8.954;2023-03-01T15:00:42;24.40;;;13.17;;
2598;SDS011;1309;48.810;8.954;2023-03-01T15:03:17;21.57;;;13.30;;
2598;SDS011;1309;48.810;8.954;2023-03-01T15:05:49;28.03;;;13.43;;
2598;SDS011;1309;48.810;8.954;2023-03-01T15:08:22;26.93;;;14.30;;
2598;SDS011;1309;48.810;8.954;2023-03-01T15:10:58;19.87;;;11.17;;
2598;SDS011;1309;48.810;8.954;2023-03-01T15:13:30;23.00;;;13.07;;
2598;SDS011;1309;48.810;8.954;2023-03-01T15:16:09;25.63;;;13.67;;
2598;SDS011;1309;48.810;8.954;2023-03-01T15:18:37;25.47;;;14.10;;
2598;SDS011;1309;48.810;8.954;2023-03-01T15:21:15;21.80;;;14.10;;
2598;SDS011;1309;48.810;8.954;2023-03-01T15:23:50;21.27;;;13.90;;
2598;SDS011;1309;48.810;8.954;2023-03-01T15:26:24;25.83;;;14.23;;
2598;SDS011;1309;48.810;8.954;2023-03-01T15:28:58;22.97;;;15.27;;
2598;SDS011;1309;48.810;8.954;2023-03-01T15:31:27;26.30;;;13.57;;
2598;SDS011;1309;48.810;8.954;2023-03-01T15:36:50;23.90;;;12.93;;
2598;SDS011;1309;48.810;8.954;2023-03-01T15:39:35;30.50;;;12.33;;
2598;SDS011;1309;48.810;8.954;2023-03-01T15:42:11;27.57;;;14.20;;
2598;SDS011;1309;48.810;8.954;2023-03-01T15:44:40;24.10;;;12.33;;
2598;SDS011;1309;48.810;8.954;2023-03-01T15:47:28;24.50;;;13.80;;
2598;SDS011;1309;48.810;8.954;2023-03-01T15:49:58;26.27;;;14.30;;
2598;SDS011;1309;48.810;8.954;2023-03-01T15:52:28;32.30;;;14.47;;
2598;SDS011;1309;48.810;8.954;2023-03-01T15:54:58;27.70;;;13.20;;
2598;SDS011;1309;48.810;8.954;2023-03-01T15:57:31;27.30;;;14.00;;
2598;SDS011;1309;48.810;8.954;2023-03-01T15:59:59;27.43;;;13.10;;
2598;SDS011;1309;48.810;8.954;2023-03-01T16:02:27;27.40;;;12.40;;
2598;SDS011;1309;48.810;8.954;2023-03-01T16:04:58;23.40;;;12.87;;